sensor_id;sensor_type;location;lat;lon;timestamp;pressure;altitude;pressure_sealevel;temperature;humidity
77588;BME280;66745;49.716;17.158;2023-05-10T04:55:40;99031.38;;;24.28;41.06
77588;BME280;66745;49.716;17.158;2023-05-10T04:58:41;99037.25;;;24.50;40.51
77588;BME280;66745;49.716;17.158;2023-05-10T05:01:41;99037.34;;;24.81;39.82
77588;BME280;66745;49.716;17.158;2023-05-10T05:04:44;99029.31;;;25.20;38.91
77588;BME280;66745;49.716;17.158;2023-05-10T05:07:46;99032.47;;;25.02;38.70
77588;BME280;66745;49.716;17.158;2023-05-10T05:10:47;99026.25;;;24.46;35.15
77588;BME280;66745;49.716;17.158;2023-05-10T05:17:00;99048.75;;;27.98;35.22
77588;BME280;66745;49.716;17.158;2023-05-10T05:20:01;99044.03;;;29.03;32.90
77588;BME280;66745;49.716;17.158;2023-05-10T05:23:04;99041.69;;;30.87;32.31
77588;BME280;66745;49.716;17.158;2023-05-10T05:26:07;99045.06;;;31.36;31.12
77588;BME280;66745;49.716;17.158;2023-05-10T05:29:11;99048.66;;;31.69;32.46
77588;BME280;66745;49.716;17.158;2023-05-10T05:35:23;99035.44;;;33.15;29.65
77588;BME280;66745;49.716;17.158;2023-05-10T05:38:26;99029.03;;;34.33;28.60
77588;BME280;66745;49.716;17.158;2023-05-10T05:41:35;99032.66;;;34.77;27.99
77588;BME280;66745;49.716;17.158;2023-05-10T05:44:35;99032.84;;;35.38;27.83
77588;BME280;66745;49.716;17.158;2023-05-10T05:47:36;99038.19;;;35.87;26.48
77588;BME280;66745;49.716;17.158;2023-05-10T05:50:36;99036.84;;;36.81;27.33
77588;BME280;66745;49.716;17.158;2023-05-10T05:53:37;99031.97;;;37.63;26.11
77588;BME280;66745;49.716;17.158;2023-05-10T05:56:37;99034.31;;;35.16;28.48
77588;BME280;66745;49.716;17.158;2023-05-10T05:59:39;99037.53;;;36.41;27.17
77588;BME280;66745;49.716;17.158;2023-05-10T06:02:43;99034.38;;;37.49;25.31
77588;BME280;66745;49.716;17.158;2023-05-10T06:05:44;99027.06;;;38.57;23.89
77588;BME280;66745;49.716;17.158;2023-05-10T06:08:44;99028.44;;;39.26;21.94
77588;BME280;66745;49.716;17.158;2023-05-10T06:11:45;99031.06;;;39.15;22.27
77588;BME280;66745;49.716;17.158;2023-05-10T06:14:45;99032.84;;;38.66;20.92
77588;BME280;66745;49.716;17.158;2023-05-10T06:17:49;99036.78;;;37.77;22.89
77588;BME280;66745;49.716;17.158;2023-05-10T06:20:49;99037.56;;;37.21;22.78
77588;BME280;66745;49.716;17.158;2023-05-10T06:23:52;99036.78;;;36.96;22.90
77588;BME280;66745;49.716;17.158;2023-05-10T06:26:53;99028.50;;;36.75;22.61
77588;BME280;66745;49.716;17.158;2023-05-10T06:29:53;99037.41;;;36.79;22.24
77588;BME280;66745;49.716;17.158;2023-05-10T06:32:54;99036.06;;;36.25;22.56
77588;BME280;66745;49.716;17.158;2023-05-10T06:35:55;99033.69;;;36.54;22.40
77588;BME280;66745;49.716;17.158;2023-05-10T06:38:56;99033.22;;;36.10;23.58
77588;BME280;66745;49.716;17.158;2023-05-10T06:41:56;99030.50;;;36.42;23.20
77588;BME280;66745;49.716;17.158;2023-05-10T06:44:56;99035.00;;;36.60;22.17
77588;BME280;66745;49.716;17.158;2023-05-10T06:47:57;99032.34;;;36.62;22.10
77588;BME280;66745;49.716;17.158;2023-05-10T06:50:58;99031.34;;;36.75;22.83
77588;BME280;66745;49.716;17.158;2023-05-10T06:53:58;99038.47;;;36.99;22.12
77588;BME280;66745;49.716;17.158;2023-05-10T06:56:58;99028.66;;;37.17;21.80
77588;BME280;66745;49.716;17.158;2023-05-10T07:00:00;99029.16;;;36.98;23.03
77588;BME280;66745;49.716;17.158;2023-05-10T07:03:00;99021.66;;;37.43;23.17
77588;BME280;66745;49.716;17.158;2023-05-10T07:06:04;99020.28;;;37.19;21.22
77588;BME280;66745;49.716;17.158;2023-05-10T07:09:04;99026.47;;;37.33;20.68
77588;BME280;66745;49.716;17.158;2023-05-10T07:12:05;99032.03;;;36.91;21.88
77588;BME280;66745;49.716;17.158;2023-05-10T07:15:06;99027.13;;;37.73;20.30
77588;BME280;66745;49.716;17.158;2023-05-10T07:18:06;99033.88;;;37.85;21.28
77588;BME280;66745;49.716;17.158;2023-05-10T07:21:07;99032.16;;;38.07;21.14
77588;BME280;66745;49.716;17.158;2023-05-10T07:24:07;99027.50;;;38.36;21.29
77588;BME280;66745;49.716;17.158;2023-05-10T07:27:08;99025.88;;;38.77;20.23
77588;BME280;66745;49.716;17.158;2023-05-10T07:30:09;99022.66;;;39.17;19.21
77588;BME280;66745;49.716;17.158;2023-05-10T07:33:10;99026.66;;;39.31;19.12
77588;BME280;66745;49.716;17.158;2023-05-10T07:36:14;99027.03;;;39.54;20.63
77588;BME280;66745;49.716;17.158;2023-05-10T07:39:14;99016.66;;;40.14;19.96
77588;BME280;66745;49.716;17.158;2023-05-10T07:42:15;99013.38;;;40.18;19.05
77588;BME280;66745;49.716;17.158;2023-05-10T07:45:15;99015.13;;;39.94;19.58
77588;BME280;66745;49.716;17.158;2023-05-10T07:48:16;99022.44;;;37.36;21.02
77588;BME280;66745;49.716;17.158;2023-05-10T07:51:17;99008.00;;;39.39;18.38
77588;BME280;66745;49.716;17.158;2023-05-10T07:54:18;99017.06;;;41.16;18.06
77588;BME280;66745;49.716;17.158;2023-05-10T07:57:19;99016.06;;;40.06;17.45
77588;BME280;66745;49.716;17.158;2023-05-10T08:00:20;99019.50;;;40.04;18.64
77588;BME280;66745;49.716;17.158;2023-05-10T08:03:20;99028.19;;;39.78;19.66
77588;BME280;66745;49.716;17.158;2023-05-10T08:06:21;99011.94;;;39.90;19.17
77588;BME280;66745;49.716;17.158;2023-05-10T08:09:21;99013.91;;;37.03;22.17
77588;BME280;66745;49.716;17.158;2023-05-10T08:12:24;99012.41;;;36.95;22.13
77588;BME280;66745;49.716;17.158;2023-05-10T08:15:24;99021.19;;;33.98;24.62
77588;BME280;66745;49.716;17.158;2023-05-10T08:18:25;99015.56;;;35.51;22.14
77588;BME280;66745;49.716;17.158;2023-05-10T08:21:26;99007.25;;;39.39;18.93
77588;BME280;66745;49.716;17.158;2023-05-10T08:24:27;99008.59;;;36.60;21.72
77588;BME280;66745;49.716;17.158;2023-05-10T08:27:28;99011.31;;;34.99;23.07
77588;BME280;66745;49.716;17.158;2023-05-10T08:30:31;99022.63;;;32.54;24.55
77588;BME280;66745;49.716;17.158;2023-05-10T08:33:35;99026.66;;;32.33;25.28
77588;BME280;66745;49.716;17.158;2023-05-10T08:36:36;99021.50;;;37.08;20.54
77588;BME280;66745;49.716;17.158;2023-05-10T08:39:43;99025.34;;;37.60;20.42
77588;BME280;66745;49.716;17.158;2023-05-10T08:42:46;99028.44;;;37.55;20.20
77588;BME280;66745;49.716;17.158;2023-05-10T08:45:53;99016.69;;;35.33;22.86
77588;BME280;66745;49.716;17.158;2023-05-10T08:48:56;99019.59;;;35.78;21.93
77588;BME280;66745;49.716;17.158;2023-05-10T08:52:01;99015.75;;;39.56;19.99
77588;BME280;66745;49.716;17.158;2023-05-10T08:55:03;99018.16;;;39.50;18.54
77588;BME280;66745;49.716;17.158;2023-05-10T08:58:04;99030.44;;;40.35;17.65
77588;BME280;66745;49.716;17.158;2023-05-10T09:01:05;99016.50;;;39.20;17.07
77588;BME280;66745;49.716;17.158;2023-05-10T09:04:06;99017.75;;;36.43;20.88
77588;BME280;66745;49.716;17.158;2023-05-10T09:07:06;99017.53;;;34.97;20.55
77588;BME280;66745;49.716;17.158;2023-05-10T09:10:07;99017.13;;;37.07;21.48
77588;BME280;66745;49.716;17.158;2023-05-10T09:13:09;99015.03;;;39.02;20.17
77588;BME280;66745;49.716;17.158;2023-05-10T09:16:11;99006.63;;;36.23;20.79
77588;BME280;66745;49.716;17.158;2023-05-10T09:19:14;99004.59;;;40.44;18.23
77588;BME280;66745;49.716;17.158;2023-05-10T09:22:14;99009.16;;;43.28;17.66
77588;BME280;66745;49.716;17.158;2023-05-10T09:28:55;99008.13;;;41.21;17.48
77588;BME280;66745;49.716;17.158;2023-05-10T09:31:59;99005.72;;;42.31;16.93
77588;BME280;66745;49.716;17.158;2023-05-10T09:35:05;99012.34;;;39.67;16.53
77588;BME280;66745;49.716;17.158;2023-05-10T09:38:05;99002.63;;;41.75;17.08
77588;BME280;66745;49.716;17.158;2023-05-10T09:41:14;99004.50;;;42.67;15.72
77588;BME280;66745;49.716;17.158;2023-05-10T09:44:18;99003.19;;;41.84;16.45
77588;BME280;66745;49.716;17.158;2023-05-10T09:47:29;99006.03;;;45.18;13.07
77588;BME280;66745;49.716;17.158;2023-05-10T09:50:55;99008.03;;;45.95;13.19
77588;BME280;66745;49.716;17.158;2023-05-10T09:54:20;98997.34;;;44.54;13.47
77588;BME280;66745;49.716;17.158;2023-05-10T09:57:27;99006.69;;;44.66;13.84
77588;BME280;66745;49.716;17.158;2023-05-10T10:00:51;99001.91;;;47.20;13.22
77588;BME280;66745;49.716;17.158;2023-05-10T10:03:52;99010.75;;;38.50;17.67
77588;BME280;66745;49.716;17.158;2023-05-10T10:07:00;98994.28;;;40.99;15.10
77588;BME280;66745;49.716;17.158;2023-05-10T10:10:06;98985.09;;;40.81;15.09
77588;BME280;66745;49.716;17.158;2023-05-10T10:13:11;98995.78;;;41.09;16.17
77588;BME280;66745;49.716;17.158;2023-05-10T10:19:59;98995.25;;;39.60;18.14
77588;BME280;66745;49.716;17.158;2023-05-10T10:23:11;98976.84;;;43.07;14.91
77588;BME280;66745;49.716;17.158;2023-05-10T10:26:12;98993.94;;;41.85;15.07
77588;BME280;66745;49.716;17.158;2023-05-10T10:29:44;98982.88;;;40.51;16.73
77588;BME280;66745;49.716;17.158;2023-05-10T10:33:10;98977.63;;;44.76;14.65
77588;BME280;66745;49.716;17.158;2023-05-10T10:39:47;98987.09;;;43.33;14.75
77588;BME280;66745;49.716;17.158;2023-05-10T10:42:56;98976.41;;;40.60;14.93
77588;BME280;66745;49.716;17.158;2023-05-10T10:46:16;98975.25;;;39.79;17.21
77588;BME280;66745;49.716;17.158;2023-05-10T10:53:23;98974.91;;;42.22;15.33
77588;BME280;66745;49.716;17.158;2023-05-10T10:56:35;98972.59;;;40.38;16.69
77588;BME280;66745;49.716;17.158;2023-05-10T10:59:51;98967.75;;;44.05;12.85
77588;BME280;66745;49.716;17.158;2023-05-10T11:10:48;98952.69;;;44.94;13.76
77588;BME280;66745;49.716;17.158;2023-05-10T11:14:06;98957.63;;;38.73;17.51
77588;BME280;66745;49.716;17.158;2023-05-10T11:17:31;98952.06;;;40.61;16.40
77588;BME280;66745;49.716;17.158;2023-05-10T11:20:39;98952.72;;;42.13;14.62
77588;BME280;66745;49.716;17.158;2023-05-10T11:27:14;98950.50;;;45.47;12.23
77588;BME280;66745;49.716;17.158;2023-05-10T11:30:32;98950.78;;;41.64;14.86
77588;BME280;66745;49.716;17.158;2023-05-10T11:33:42;98952.47;;;42.42;14.86
77588;BME280;66745;49.716;17.158;2023-05-10T11:36:54;98946.88;;;45.60;12.21
77588;BME280;66745;49.716;17.158;2023-05-10T11:39:55;98944.94;;;39.66;16.86
77588;BME280;66745;49.716;17.158;2023-05-10T11:42:59;98945.28;;;43.43;14.16
77588;BME280;66745;49.716;17.158;2023-05-10T11:46:08;98950.81;;;42.39;13.98
77588;BME280;66745;49.716;17.158;2023-05-10T11:49:27;98950.56;;;41.10;16.11
77588;BME280;66745;49.716;17.158;2023-05-10T11:52:35;98937.84;;;38.07;18.10
77588;BME280;66745;49.716;17.158;2023-05-10T11:55:36;98943.50;;;37.55;18.11
77588;BME280;66745;49.716;17.158;2023-05-10T11:58:37;98949.53;;;35.37;19.67
77588;BME280;66745;49.716;17.158;2023-05-10T12:01:37;98962.91;;;34.33;20.77
77588;BME280;66745;49.716;17.158;2023-05-10T12:04:39;98949.44;;;41.34;14.56
77588;BME280;66745;49.716;17.158;2023-05-10T12:07:43;98949.88;;;38.05;16.29
77588;BME280;66745;49.716;17.158;2023-05-10T12:10:51;98956.50;;;36.04;19.28
77588;BME280;66745;49.716;17.158;2023-05-10T12:13:57;98946.34;;;40.51;17.78
77588;BME280;66745;49.716;17.158;2023-05-10T12:17:01;98950.53;;;43.01;15.37
77588;BME280;66745;49.716;17.158;2023-05-10T12:20:35;98962.00;;;39.74;16.81
77588;BME280;66745;49.716;17.158;2023-05-10T12:23:43;98945.63;;;37.55;18.01
77588;BME280;66745;49.716;17.158;2023-05-10T12:26:50;98963.19;;;41.36;15.57
77588;BME280;66745;49.716;17.158;2023-05-10T12:29:55;98966.00;;;37.51;17.66
77588;BME280;66745;49.716;17.158;2023-05-10T12:33:18;98957.72;;;39.19;17.58
77588;BME280;66745;49.716;17.158;2023-05-10T12:36:23;98954.47;;;38.52;17.42
77588;BME280;66745;49.716;17.158;2023-05-10T12:39:23;98957.78;;;40.03;15.78
77588;BME280;66745;49.716;17.158;2023-05-10T12:42:34;98945.44;;;43.34;14.21
77588;BME280;66745;49.716;17.158;2023-05-10T12:45:47;98946.09;;;38.81;17.86
77588;BME280;66745;49.716;17.158;2023-05-10T12:48:52;98946.81;;;36.07;19.39
77588;BME280;66745;49.716;17.158;2023-05-10T12:51:55;98942.75;;;41.62;15.09
77588;BME280;66745;49.716;17.158;2023-05-10T12:54:58;98942.09;;;35.80;18.65
77588;BME280;66745;49.716;17.158;2023-05-10T12:58:17;98950.44;;;35.85;20.84
77588;BME280;66745;49.716;17.158;2023-05-10T13:01:18;98944.88;;;39.11;18.50
77588;BME280;66745;49.716;17.158;2023-05-10T13:04:19;98943.72;;;37.50;20.37
77588;BME280;66745;49.716;17.158;2023-05-10T13:11:25;98931.19;;;38.21;19.21
77588;BME280;66745;49.716;17.158;2023-05-10T13:14:26;98933.47;;;39.76;17.87
77588;BME280;66745;49.716;17.158;2023-05-10T13:17:28;98927.88;;;38.59;17.15
77588;BME280;66745;49.716;17.158;2023-05-10T13:24:33;98924.69;;;40.79;16.22
77588;BME280;66745;49.716;17.158;2023-05-10T13:35:03;98926.19;;;36.32;19.04
77588;BME280;66745;49.716;17.158;2023-05-10T13:38:13;98917.09;;;35.18;19.73
77588;BME280;66745;49.716;17.158;2023-05-10T13:41:14;98911.59;;;37.24;18.90
77588;BME280;66745;49.716;17.158;2023-05-10T13:44:20;98917.94;;;36.58;18.36
77588;BME280;66745;49.716;17.158;2023-05-10T13:47:22;98914.16;;;34.14;21.72
77588;BME280;66745;49.716;17.158;2023-05-10T13:50:25;98915.44;;;32.66;22.99
77588;BME280;66745;49.716;17.158;2023-05-10T13:53:30;98921.84;;;32.20;25.24
77588;BME280;66745;49.716;17.158;2023-05-10T13:56:41;98923.19;;;31.53;24.02
77588;BME280;66745;49.716;17.158;2023-05-10T13:59:42;98912.50;;;32.11;25.81
77588;BME280;66745;49.716;17.158;2023-05-10T14:02:43;98912.38;;;32.17;23.79
77588;BME280;66745;49.716;17.158;2023-05-10T14:05:43;98911.75;;;34.25;21.57
77588;BME280;66745;49.716;17.158;2023-05-10T14:09:01;98898.34;;;39.94;17.14
77588;BME280;66745;49.716;17.158;2023-05-10T14:12:13;98906.03;;;38.81;17.26
77588;BME280;66745;49.716;17.158;2023-05-10T14:15:14;98912.28;;;36.03;20.39
77588;BME280;66745;49.716;17.158;2023-05-10T14:18:17;98897.19;;;38.96;16.34
77588;BME280;66745;49.716;17.158;2023-05-10T14:21:18;98902.84;;;40.45;16.31
77588;BME280;66745;49.716;17.158;2023-05-10T14:24:22;98896.56;;;41.49;14.96
77588;BME280;66745;49.716;17.158;2023-05-10T14:27:48;98900.28;;;37.93;16.90
77588;BME280;66745;49.716;17.158;2023-05-10T14:30:55;98892.06;;;35.31;20.09
77588;BME280;66745;49.716;17.158;2023-05-10T14:33:55;98892.63;;;37.78;17.36
77588;BME280;66745;49.716;17.158;2023-05-10T14:37:05;98889.41;;;39.52;16.71
77588;BME280;66745;49.716;17.158;2023-05-10T14:40:09;98889.72;;;40.33;16.47
77588;BME280;66745;49.716;17.158;2023-05-10T14:43:18;98893.38;;;40.24;16.46
77588;BME280;66745;49.716;17.158;2023-05-10T14:46:20;98894.44;;;39.90;16.11
77588;BME280;66745;49.716;17.158;2023-05-10T14:49:22;98895.81;;;40.27;15.19
77588;BME280;66745;49.716;17.158;2023-05-10T14:52:28;98885.25;;;38.80;15.51
77588;BME280;66745;49.716;17.158;2023-05-10T14:55:34;98888.56;;;39.88;15.28
77588;BME280;66745;49.716;17.158;2023-05-10T14:58:35;98891.22;;;40.53;13.64
77588;BME280;66745;49.716;17.158;2023-05-10T15:01:39;98896.94;;;39.47;15.17
77588;BME280;66745;49.716;17.158;2023-05-10T15:04:48;98889.03;;;39.29;15.84
77588;BME280;66745;49.716;17.158;2023-05-10T15:07:53;98882.44;;;39.45;16.44
77588;BME280;66745;49.716;17.158;2023-05-10T15:10:53;98891.22;;;38.75;16.73
77588;BME280;66745;49.716;17.158;2023-05-10T15:13:59;98891.28;;;38.84;17.27
77588;BME280;66745;49.716;17.158;2023-05-10T15:17:00;98903.34;;;37.53;16.82
77588;BME280;66745;49.716;17.158;2023-05-10T15:20:00;98897.91;;;37.23;16.98
77588;BME280;66745;49.716;17.158;2023-05-10T15:23:03;98901.28;;;36.40;18.93
77588;BME280;66745;49.716;17.158;2023-05-10T15:26:10;98897.69;;;34.71;20.25
77588;BME280;66745;49.716;17.158;2023-05-10T15:29:10;98902.94;;;31.49;23.11
77588;BME280;66745;49.716;17.158;2023-05-10T15:32:16;98901.53;;;29.61;24.77
77588;BME280;66745;49.716;17.158;2023-05-10T15:35:17;98911.78;;;28.34;27.89
